sensor_id;sensor_type;location;lat;lon;timestamp;pressure;altitude;pressure_sealevel;temperature;humidity
23616;BME280;11985;49.404;7.734;2023-12-28T00:04:04;97238.59;;;5.01;100.00
23616;BME280;11985;49.404;7.734;2023-12-28T00:09:07;97248.16;;;5.09;100.00
23616;BME280;11985;49.404;7.734;2023-12-28T00:14:10;97256.91;;;5.24;100.00
23616;BME280;11985;49.404;7.734;2023-12-28T00:19:11;97254.88;;;5.35;100.00
23616;BME280;11985;49.404;7.734;2023-12-28T00:24:15;97258.25;;;5.43;100.00
23616;BME280;11985;49.404;7.734;2023-12-28T00:29:17;97257.69;;;5.56;100.00
23616;BME280;11985;49.404;7.734;2023-12-28T00:34:19;97229.56;;;5.58;100.00
23616;BME280;11985;49.404;7.734;2023-12-28T00:39:22;97249.25;;;5.69;100.00
23616;BME280;11985;49.404;7.734;2023-12-28T00:44:23;97242.28;;;5.84;100.00
23616;BME280;11985;49.404;7.734;2023-12-28T00:49:25;97246.66;;;5.92;100.00
23616;BME280;11985;49.404;7.734;2023-12-28T00:54:28;97245.06;;;6.05;100.00
23616;BME280;11985;49.404;7.734;2023-12-28T00:59:29;97235.59;;;6.19;100.00
23616;BME280;11985;49.404;7.734;2023-12-28T01:04:31;97245.28;;;6.33;100.00
23616;BME280;11985;49.404;7.734;2023-12-28T01:09:34;97239.44;;;6.46;100.00
23616;BME280;11985;49.404;7.734;2023-12-28T01:14:35;97256.66;;;6.55;100.00
23616;BME280;11985;49.404;7.734;2023-12-28T01:19:37;97263.22;;;6.66;100.00
23616;BME280;11985;49.404;7.734;2023-12-28T01:24:40;97263.22;;;6.81;100.00
23616;BME280;11985;49.404;7.734;2023-12-28T01:29:42;97266.94;;;6.86;100.00
23616;BME280;11985;49.404;7.734;2023-12-28T01:34:43;97289.16;;;6.91;100.00
23616;BME280;11985;49.404;7.734;2023-12-28T01:39:46;97310.34;;;6.96;100.00
23616;BME280;11985;49.404;7.734;2023-12-28T01:44:48;97315.25;;;6.84;100.00
23616;BME280;11985;49.404;7.734;2023-12-28T01:49:50;97323.25;;;6.53;100.00
23616;BME280;11985;49.404;7.734;2023-12-28T01:54:53;97315.81;;;6.42;100.00
23616;BME280;11985;49.404;7.734;2023-12-28T01:59:55;97326.66;;;6.39;100.00
23616;BME280;11985;49.404;7.734;2023-12-28T02:04:57;97335.56;;;6.29;100.00
23616;BME280;11985;49.404;7.734;2023-12-28T02:10:00;97352.13;;;6.22;100.00
23616;BME280;11985;49.404;7.734;2023-12-28T02:15:02;97331.22;;;5.99;100.00
23616;BME280;11985;49.404;7.734;2023-12-28T02:20:05;97327.34;;;5.87;100.00
23616;BME280;11985;49.404;7.734;2023-12-28T02:25:09;97339.03;;;5.76;100.00
23616;BME280;11985;49.404;7.734;2023-12-28T02:30:15;97353.97;;;5.67;100.00
23616;BME280;11985;49.404;7.734;2023-12-28T02:35:19;97350.22;;;5.62;100.00
23616;BME280;11985;49.404;7.734;2023-12-28T02:40:23;97353.88;;;5.52;100.00
23616;BME280;11985;49.404;7.734;2023-12-28T02:45:26;97350.78;;;5.49;100.00
23616;BME280;11985;49.404;7.734;2023-12-28T02:50:28;97359.00;;;5.38;100.00
23616;BME280;11985;49.404;7.734;2023-12-28T02:55:31;97352.50;;;5.34;100.00
23616;BME280;11985;49.404;7.734;2023-12-28T03:00:33;97356.91;;;5.33;100.00
23616;BME280;11985;49.404;7.734;2023-12-28T03:05:35;97351.22;;;5.29;100.00
23616;BME280;11985;49.404;7.734;2023-12-28T03:10:39;97341.78;;;5.20;100.00
23616;BME280;11985;49.404;7.734;2023-12-28T03:15:40;97342.44;;;5.14;100.00
23616;BME280;11985;49.404;7.734;2023-12-28T03:20:42;97328.28;;;5.09;100.00
23616;BME280;11985;49.404;7.734;2023-12-28T03:25:45;97319.31;;;5.03;100.00
23616;BME280;11985;49.404;7.734;2023-12-28T03:30:47;97336.28;;;5.07;100.00
23616;BME280;11985;49.404;7.734;2023-12-28T03:35:48;97334.31;;;5.09;100.00
23616;BME280;11985;49.404;7.734;2023-12-28T03:40:52;97334.63;;;5.14;100.00
23616;BME280;11985;49.404;7.734;2023-12-28T03:45:54;97316.34;;;5.14;100.00
23616;BME280;11985;49.404;7.734;2023-12-28T03:50:56;97319.59;;;5.16;100.00
23616;BME280;11985;49.404;7.734;2023-12-28T03:55:59;97322.69;;;5.20;100.00
23616;BME280;11985;49.404;7.734;2023-12-28T04:01:01;97332.00;;;5.22;100.00
23616;BME280;11985;49.404;7.734;2023-12-28T04:06:02;97343.88;;;5.25;100.00
23616;BME280;11985;49.404;7.734;2023-12-28T04:11:06;97332.00;;;5.22;100.00
23616;BME280;11985;49.404;7.734;2023-12-28T04:16:07;97335.06;;;5.26;100.00
23616;BME280;11985;49.404;7.734;2023-12-28T04:21:10;97344.38;;;5.28;100.00
23616;BME280;11985;49.404;7.734;2023-12-28T04:26:13;97337.78;;;5.33;100.00
23616;BME280;11985;49.404;7.734;2023-12-28T04:31:15;97329.31;;;5.39;100.00
23616;BME280;11985;49.404;7.734;2023-12-28T04:36:16;97347.03;;;5.43;100.00
23616;BME280;11985;49.404;7.734;2023-12-28T04:41:20;97349.16;;;5.48;100.00
23616;BME280;11985;49.404;7.734;2023-12-28T04:46:21;97346.84;;;5.53;100.00
23616;BME280;11985;49.404;7.734;2023-12-28T04:51:23;97365.44;;;5.58;100.00
23616;BME280;11985;49.404;7.734;2023-12-28T04:56:26;97353.97;;;5.67;100.00
23616;BME280;11985;49.404;7.734;2023-12-28T05:01:28;97351.28;;;5.75;100.00
23616;BME280;11985;49.404;7.734;2023-12-28T05:06:31;97360.41;;;5.79;100.00
23616;BME280;11985;49.404;7.734;2023-12-28T05:11:36;97370.50;;;5.82;100.00
23616;BME280;11985;49.404;7.734;2023-12-28T05:16:37;97376.03;;;5.88;100.00
23616;BME280;11985;49.404;7.734;2023-12-28T05:21:39;97381.59;;;5.93;100.00
23616;BME280;11985;49.404;7.734;2023-12-28T05:26:42;97373.41;;;5.96;100.00
23616;BME280;11985;49.404;7.734;2023-12-28T05:31:44;97383.97;;;6.02;100.00
23616;BME280;11985;49.404;7.734;2023-12-28T05:36:45;97366.16;;;6.06;100.00
23616;BME280;11985;49.404;7.734;2023-12-28T05:41:48;97378.88;;;6.09;100.00
23616;BME280;11985;49.404;7.734;2023-12-28T05:46:51;97388.03;;;6.05;100.00
23616;BME280;11985;49.404;7.734;2023-12-28T05:51:53;97383.78;;;6.04;100.00
23616;BME280;11985;49.404;7.734;2023-12-28T05:56:56;97390.84;;;6.03;100.00
23616;BME280;11985;49.404;7.734;2023-12-28T06:01:59;97399.03;;;6.00;100.00
23616;BME280;11985;49.404;7.734;2023-12-28T06:07:02;97388.41;;;6.02;100.00
23616;BME280;11985;49.404;7.734;2023-12-28T06:12:06;97407.00;;;6.07;100.00
23616;BME280;11985;49.404;7.734;2023-12-28T06:17:07;97406.63;;;6.10;100.00
23616;BME280;11985;49.404;7.734;2023-12-28T06:22:09;97409.44;;;6.08;100.00
23616;BME280;11985;49.404;7.734;2023-12-28T06:27:12;97415.66;;;6.07;100.00
23616;BME280;11985;49.404;7.734;2023-12-28T06:32:14;97405.38;;;6.06;100.00
23616;BME280;11985;49.404;7.734;2023-12-28T06:37:15;97412.84;;;6.09;100.00
23616;BME280;11985;49.404;7.734;2023-12-28T06:42:19;97397.66;;;6.13;100.00
23616;BME280;11985;49.404;7.734;2023-12-28T06:47:20;97399.91;;;6.16;100.00
23616;BME280;11985;49.404;7.734;2023-12-28T06:52:22;97399.25;;;6.14;100.00
23616;BME280;11985;49.404;7.734;2023-12-28T06:57:25;97392.59;;;6.11;100.00
23616;BME280;11985;49.404;7.734;2023-12-28T07:02:26;97405.81;;;6.09;100.00
23616;BME280;11985;49.404;7.734;2023-12-28T07:07:28;97409.91;;;6.12;100.00
23616;BME280;11985;49.404;7.734;2023-12-28T07:12:31;97424.91;;;6.18;100.00
23616;BME280;11985;49.404;7.734;2023-12-28T07:17:32;97432.22;;;6.23;100.00
23616;BME280;11985;49.404;7.734;2023-12-28T07:22:34;97428.81;;;6.22;100.00
23616;BME280;11985;49.404;7.734;2023-12-28T07:27:37;97446.97;;;6.16;100.00
23616;BME280;11985;49.404;7.734;2023-12-28T07:32:39;97454.66;;;6.17;100.00
23616;BME280;11985;49.404;7.734;2023-12-28T07:37:40;97454.66;;;6.17;100.00
23616;BME280;11985;49.404;7.734;2023-12-28T07:42:43;97447.78;;;6.16;100.00
23616;BME280;11985;49.404;7.734;2023-12-28T07:47:45;97459.06;;;6.17;100.00
23616;BME280;11985;49.404;7.734;2023-12-28T07:52:47;97463.44;;;6.24;100.00
23616;BME280;11985;49.404;7.734;2023-12-28T07:57:50;97482.22;;;6.28;100.00
23616;BME280;11985;49.404;7.734;2023-12-28T08:02:51;97464.44;;;6.23;100.00
23616;BME280;11985;49.404;7.734;2023-12-28T08:07:53;97461.28;;;6.28;100.00
23616;BME280;11985;49.404;7.734;2023-12-28T08:12:56;97466.69;;;6.26;100.00
23616;BME280;11985;49.404;7.734;2023-12-28T08:17:57;97469.59;;;6.31;100.00
23616;BME280;11985;49.404;7.734;2023-12-28T08:22:59;97460.94;;;6.31;100.00
23616;BME280;11985;49.404;7.734;2023-12-28T08:28:02;97482.66;;;6.31;100.00
23616;BME280;11985;49.404;7.734;2023-12-28T08:33:04;97470.59;;;6.30;100.00
23616;BME280;11985;49.404;7.734;2023-12-28T08:38:06;97468.59;;;6.32;100.00
23616;BME280;11985;49.404;7.734;2023-12-28T08:43:09;97472.00;;;6.41;100.00
23616;BME280;11985;49.404;7.734;2023-12-28T08:48:10;97475.88;;;6.45;100.00
23616;BME280;11985;49.404;7.734;2023-12-28T08:53:12;97487.50;;;6.43;100.00
23616;BME280;11985;49.404;7.734;2023-12-28T08:58:15;97491.75;;;6.44;100.00
23616;BME280;11985;49.404;7.734;2023-12-28T09:03:16;97495.03;;;6.46;100.00
23616;BME280;11985;49.404;7.734;2023-12-28T09:08:18;97493.22;;;6.46;100.00
23616;BME280;11985;49.404;7.734;2023-12-28T09:13:21;97482.56;;;6.48;100.00
23616;BME280;11985;49.404;7.734;2023-12-28T09:18:22;97486.19;;;6.47;100.00
23616;BME280;11985;49.404;7.734;2023-12-28T09:23:25;97506.94;;;6.48;100.00
23616;BME280;11985;49.404;7.734;2023-12-28T09:28:28;97510.34;;;6.49;100.00
23616;BME280;11985;49.404;7.734;2023-12-28T09:33:30;97502.34;;;6.50;100.00
23616;BME280;11985;49.404;7.734;2023-12-28T09:38:32;97511.75;;;6.59;100.00
23616;BME280;11985;49.404;7.734;2023-12-28T09:43:37;97498.09;;;6.72;100.00
23616;BME280;11985;49.404;7.734;2023-12-28T09:48:42;97505.13;;;6.72;100.00
23616;BME280;11985;49.404;7.734;2023-12-28T09:53:44;97507.59;;;6.73;100.00
23616;BME280;11985;49.404;7.734;2023-12-28T09:58:48;97505.78;;;6.74;100.00
23616;BME280;11985;49.404;7.734;2023-12-28T10:03:51;97487.44;;;6.74;100.00
23616;BME280;11985;49.404;7.734;2023-12-28T10:08:52;97493.13;;;6.77;100.00
23616;BME280;11985;49.404;7.734;2023-12-28T10:13:56;97499.84;;;6.80;100.00
23616;BME280;11985;49.404;7.734;2023-12-28T10:18:59;97508.50;;;6.80;100.00
23616;BME280;11985;49.404;7.734;2023-12-28T10:24:02;97498.03;;;6.80;100.00
23616;BME280;11985;49.404;7.734;2023-12-28T10:29:05;97503.25;;;6.80;100.00
23616;BME280;11985;49.404;7.734;2023-12-28T10:34:06;97499.66;;;6.81;100.00
23616;BME280;11985;49.404;7.734;2023-12-28T10:39:09;97490.34;;;6.79;100.00
23616;BME280;11985;49.404;7.734;2023-12-28T10:44:17;97488.47;;;6.87;100.00
23616;BME280;11985;49.404;7.734;2023-12-28T10:49:24;97484.53;;;6.92;100.00
23616;BME280;11985;49.404;7.734;2023-12-28T10:54:33;97474.84;;;6.92;100.00
23616;BME280;11985;49.404;7.734;2023-12-28T10:59:58;97466.81;;;6.94;100.00
23616;BME280;11985;49.404;7.734;2023-12-28T11:05:02;97478.94;;;6.95;100.00
23616;BME280;11985;49.404;7.734;2023-12-28T11:10:06;97465.56;;;6.90;100.00
23616;BME280;11985;49.404;7.734;2023-12-28T11:15:12;97453.09;;;6.92;100.00
23616;BME280;11985;49.404;7.734;2023-12-28T11:20:15;97452.00;;;6.86;100.00
23616;BME280;11985;49.404;7.734;2023-12-28T11:25:18;97444.69;;;6.81;100.00
23616;BME280;11985;49.404;7.734;2023-12-28T11:30:25;97447.38;;;6.73;100.00
23616;BME280;11985;49.404;7.734;2023-12-28T11:35:35;97447.91;;;6.69;100.00
23616;BME280;11985;49.404;7.734;2023-12-28T11:40:40;97441.16;;;6.74;100.00
23616;BME280;11985;49.404;7.734;2023-12-28T11:45:48;97443.69;;;6.82;100.00
23616;BME280;11985;49.404;7.734;2023-12-28T11:50:51;97438.56;;;6.89;100.00
23616;BME280;11985;49.404;7.734;2023-12-28T11:55:59;97437.75;;;6.88;100.00
23616;BME280;11985;49.404;7.734;2023-12-28T12:01:03;97437.75;;;6.88;100.00
23616;BME280;11985;49.404;7.734;2023-12-28T12:06:05;97427.63;;;6.85;100.00
23616;BME280;11985;49.404;7.734;2023-12-28T12:11:07;97421.31;;;6.80;100.00
23616;BME280;11985;49.404;7.734;2023-12-28T12:16:10;97423.91;;;6.80;100.00
23616;BME280;11985;49.404;7.734;2023-12-28T12:21:12;97420.22;;;6.74;100.00
23616;BME280;11985;49.404;7.734;2023-12-28T12:26:13;97418.13;;;6.70;100.00
23616;BME280;11985;49.404;7.734;2023-12-28T12:31:16;97424.53;;;6.67;100.00
23616;BME280;11985;49.404;7.734;2023-12-28T12:36:18;97411.06;;;6.70;100.00
23616;BME280;11985;49.404;7.734;2023-12-28T12:41:21;97407.94;;;6.75;100.00
23616;BME280;11985;49.404;7.734;2023-12-28T12:46:24;97400.88;;;6.75;100.00
23616;BME280;11985;49.404;7.734;2023-12-28T12:51:26;97404.50;;;6.74;100.00
23616;BME280;11985;49.404;7.734;2023-12-28T12:56:29;97401.59;;;6.69;100.00
23616;BME280;11985;49.404;7.734;2023-12-28T13:01:32;97396.38;;;6.69;100.00
23616;BME280;11985;49.404;7.734;2023-12-28T13:06:33;97387.41;;;6.64;100.00
23616;BME280;11985;49.404;7.734;2023-12-28T13:11:35;97384.19;;;6.61;100.00
23616;BME280;11985;49.404;7.734;2023-12-28T13:16:38;97382.53;;;6.60;100.00
23616;BME280;11985;49.404;7.734;2023-12-28T13:21:39;97385.31;;;6.59;100.00
23616;BME280;11985;49.404;7.734;2023-12-28T13:26:41;97376.13;;;6.63;100.00
23616;BME280;11985;49.404;7.734;2023-12-28T13:31:44;97383.81;;;6.65;100.00
23616;BME280;11985;49.404;7.734;2023-12-28T13:36:50;97375.78;;;6.66;100.00
23616;BME280;11985;49.404;7.734;2023-12-28T13:41:51;97382.56;;;6.75;100.00
23616;BME280;11985;49.404;7.734;2023-12-28T13:46:54;97379.31;;;6.88;100.00
23616;BME280;11985;49.404;7.734;2023-12-28T13:51:56;97382.22;;;6.93;100.00
23616;BME280;11985;49.404;7.734;2023-12-28T13:56:57;97392.53;;;6.95;100.00
23616;BME280;11985;49.404;7.734;2023-12-28T14:02:01;97390.06;;;6.93;100.00
23616;BME280;11985;49.404;7.734;2023-12-28T14:07:03;97390.25;;;6.92;100.00
23616;BME280;11985;49.404;7.734;2023-12-28T14:12:06;97392.97;;;6.83;100.00
23616;BME280;11985;49.404;7.734;2023-12-28T14:17:09;97389.69;;;6.81;100.00
23616;BME280;11985;49.404;7.734;2023-12-28T14:22:11;97384.94;;;6.85;100.00
23616;BME280;11985;49.404;7.734;2023-12-28T14:27:13;97382.13;;;6.86;100.00
23616;BME280;11985;49.404;7.734;2023-12-28T14:32:17;97377.69;;;6.87;100.00
23616;BME280;11985;49.404;7.734;2023-12-28T14:37:19;97379.44;;;6.95;100.00
23616;BME280;11985;49.404;7.734;2023-12-28T14:42:20;97383.31;;;6.99;100.00
23616;BME280;11985;49.404;7.734;2023-12-28T14:47:23;97373.63;;;6.99;100.00
23616;BME280;11985;49.404;7.734;2023-12-28T14:52:25;97375.44;;;6.99;100.00
23616;BME280;11985;49.404;7.734;2023-12-28T14:57:27;97385.66;;;6.94;100.00
23616;BME280;11985;49.404;7.734;2023-12-28T15:02:30;97372.94;;;6.91;100.00
23616;BME280;11985;49.404;7.734;2023-12-28T15:07:32;97372.84;;;6.84;100.00
23616;BME280;11985;49.404;7.734;2023-12-28T15:12:34;97363.19;;;6.84;100.00
23616;BME280;11985;49.404;7.734;2023-12-28T15:17:37;97368.75;;;6.81;100.00
23616;BME280;11985;49.404;7.734;2023-12-28T15:22:39;97374.00;;;6.81;100.00
23616;BME280;11985;49.404;7.734;2023-12-28T15:27:41;97369.47;;;6.75;100.00
23616;BME280;11985;49.404;7.734;2023-12-28T15:32:44;97347.47;;;6.84;100.00
23616;BME280;11985;49.404;7.734;2023-12-28T15:37:46;97354.50;;;6.99;100.00
23616;BME280;11985;49.404;7.734;2023-12-28T15:42:47;97363.34;;;6.98;100.00
23616;BME280;11985;49.404;7.734;2023-12-28T15:47:50;97358.56;;;6.86;100.00
23616;BME280;11985;49.404;7.734;2023-12-28T15:52:52;97363.91;;;6.78;100.00
23616;BME280;11985;49.404;7.734;2023-12-28T15:57:53;97357.38;;;6.74;100.00
23616;BME280;11985;49.404;7.734;2023-12-28T16:02:56;97352.16;;;6.74;100.00
23616;BME280;11985;49.404;7.734;2023-12-28T16:07:58;97356.75;;;6.72;100.00
23616;BME280;11985;49.404;7.734;2023-12-28T16:12:59;97354.94;;;6.73;100.00
23616;BME280;11985;49.404;7.734;2023-12-28T16:18:03;97351.25;;;6.67;100.00
23616;BME280;11985;49.404;7.734;2023-12-28T16:23:05;97350.44;;;6.67;100.00
23616;BME280;11985;49.404;7.734;2023-12-28T16:28:07;97355.81;;;6.65;100.00
23616;BME280;11985;49.404;7.734;2023-12-28T16:33:10;97350.59;;;6.65;100.00
23616;BME280;11985;49.404;7.734;2023-12-28T16:38:12;97337.69;;;6.64;100.00
23616;BME280;11985;49.404;7.734;2023-12-28T16:43:14;97349.59;;;6.66;100.00
23616;BME280;11985;49.404;7.734;2023-12-28T16:48:17;97341.75;;;6.66;100.00
23616;BME280;11985;49.404;7.734;2023-12-28T16:53:20;97345.19;;;6.67;100.00
23616;BME280;11985;49.404;7.734;2023-12-28T16:58:21;97350.69;;;6.57;100.00
23616;BME280;11985;49.404;7.734;2023-12-28T17:03:24;97344.63;;;6.56;100.00
23616;BME280;11985;49.404;7.734;2023-12-28T17:08:26;97355.53;;;6.60;100.00
23616;BME280;11985;49.404;7.734;2023-12-28T17:13:28;97358.00;;;6.61;100.00
23616;BME280;11985;49.404;7.734;2023-12-28T17:18:32;97349.25;;;6.69;100.00
23616;BME280;11985;49.404;7.734;2023-12-28T17:23:35;97352.97;;;6.75;100.00
23616;BME280;11985;49.404;7.734;2023-12-28T17:28:44;97338.16;;;6.82;100.00
23616;BME280;11985;49.404;7.734;2023-12-28T17:33:49;97341.69;;;6.74;100.00
23616;BME280;11985;49.404;7.734;2023-12-28T17:38:51;97346.44;;;6.71;100.00
23616;BME280;11985;49.404;7.734;2023-12-28T17:43:55;97344.75;;;6.63;100.00
23616;BME280;11985;49.404;7.734;2023-12-28T17:48:59;97343.19;;;6.54;100.00
23616;BME280;11985;49.404;7.734;2023-12-28T17:54:04;97349.59;;;6.51;100.00
23616;BME280;11985;49.404;7.734;2023-12-28T17:59:06;97351.22;;;6.52;100.00
23616;BME280;11985;49.404;7.734;2023-12-28T18:04:09;97355.63;;;6.52;100.00
23616;BME280;11985;49.404;7.734;2023-12-28T18:09:10;97348.94;;;6.49;100.00
23616;BME280;11985;49.404;7.734;2023-12-28T18:14:12;97353.81;;;6.52;100.00
23616;BME280;11985;49.404;7.734;2023-12-28T18:19:15;97357.00;;;6.63;100.00
23616;BME280;11985;49.404;7.734;2023-12-28T18:24:16;97348.97;;;6.64;100.00
23616;BME280;11985;49.404;7.734;2023-12-28T18:29:18;97350.31;;;6.60;100.00
23616;BME280;11985;49.404;7.734;2023-12-28T18:34:22;97358.34;;;6.58;100.00
23616;BME280;11985;49.404;7.734;2023-12-28T18:39:23;97352.31;;;6.58;100.00
23616;BME280;11985;49.404;7.734;2023-12-28T18:44:27;97355.91;;;6.57;100.00
23616;BME280;11985;49.404;7.734;2023-12-28T18:49:34;97358.34;;;6.58;100.00
23616;BME280;11985;49.404;7.734;2023-12-28T18:54:36;97360.78;;;6.60;100.00
23616;BME280;11985;49.404;7.734;2023-12-28T18:59:38;97350.31;;;6.60;100.00
23616;BME280;11985;49.404;7.734;2023-12-28T19:04:41;97344.75;;;6.63;100.00
23616;BME280;11985;49.404;7.734;2023-12-28T19:09:42;97349.34;;;6.61;100.00
23616;BME280;11985;49.404;7.734;2023-12-28T19:14:44;97346.34;;;6.64;100.00
23616;BME280;11985;49.404;7.734;2023-12-28T19:19:47;97346.91;;;6.74;100.00
23616;BME280;11985;49.404;7.734;2023-12-28T19:24:49;97334.44;;;6.76;100.00
23616;BME280;11985;49.404;7.734;2023-12-28T19:29:52;97338.06;;;6.75;100.00
23616;BME280;11985;49.404;7.734;2023-12-28T19:34:55;97335.44;;;6.75;100.00
23616;BME280;11985;49.404;7.734;2023-12-28T19:39:56;97335.97;;;6.71;100.00
23616;BME280;11985;49.404;7.734;2023-12-28T19:44:58;97334.16;;;6.71;100.00
23616;BME280;11985;49.404;7.734;2023-12-28T19:50:01;97337.97;;;6.69;100.00
23616;BME280;11985;49.404;7.734;2023-12-28T19:55:04;97332.28;;;6.65;100.00
23616;BME280;11985;49.404;7.734;2023-12-28T20:00:06;97336.88;;;6.63;100.00
23616;BME280;11985;49.404;7.734;2023-12-28T20:05:12;97337.50;;;6.65;100.00
23616;BME280;11985;49.404;7.734;2023-12-28T20:10:14;97338.97;;;6.68;100.00
23616;BME280;11985;49.404;7.734;2023-12-28T20:15:16;97333.91;;;6.66;100.00
23616;BME280;11985;49.404;7.734;2023-12-28T20:20:22;97344.38;;;6.66;100.00
23616;BME280;11985;49.404;7.734;2023-12-28T20:25:23;97325.97;;;6.74;100.00
23616;BME280;11985;49.404;7.734;2023-12-28T20:30:25;97334.91;;;6.80;100.00
23616;BME280;11985;49.404;7.734;2023-12-28T20:35:29;97317.22;;;6.82;100.00
23616;BME280;11985;49.404;7.734;2023-12-28T20:40:31;97315.59;;;6.81;100.00
23616;BME280;11985;49.404;7.734;2023-12-28T20:45:32;97336.06;;;6.77;100.00
23616;BME280;11985;49.404;7.734;2023-12-28T20:50:35;97315.13;;;6.77;100.00
23616;BME280;11985;49.404;7.734;2023-12-28T20:55:37;97301.78;;;6.72;100.00
23616;BME280;11985;49.404;7.734;2023-12-28T21:00:39;97306.91;;;6.66;100.00
23616;BME280;11985;49.404;7.734;2023-12-28T21:05:41;97299.72;;;6.68;100.00
23616;BME280;11985;49.404;7.734;2023-12-28T21:34:32;97313.06;;;6.73;100.00
23616;BME280;11985;49.404;7.734;2023-12-28T21:39:34;97306.66;;;6.75;100.00
23616;BME280;11985;49.404;7.734;2023-12-28T21:44:36;97303.97;;;6.83;100.00
23616;BME280;11985;49.404;7.734;2023-12-28T21:49:39;97299.97;;;6.87;100.00
23616;BME280;11985;49.404;7.734;2023-12-28T21:54:41;97299.63;;;6.91;100.00
23616;BME280;11985;49.404;7.734;2023-12-28T21:59:43;97290.41;;;6.95;100.00
23616;BME280;11985;49.404;7.734;2023-12-28T22:04:46;97304.84;;;6.91;100.00
23616;BME280;11985;49.404;7.734;2023-12-28T22:09:47;97302.84;;;6.93;100.00
23616;BME280;11985;49.404;7.734;2023-12-28T22:14:49;97296.00;;;6.92;100.00
23616;BME280;11985;49.404;7.734;2023-12-28T22:19:52;97302.84;;;6.93;100.00
23616;BME280;11985;49.404;7.734;2023-12-28T22:24:54;97282.09;;;6.91;100.00
23616;BME280;11985;49.404;7.734;2023-12-28T22:29:55;97300.88;;;6.95;100.00
23616;BME280;11985;49.404;7.734;2023-12-28T22:34:59;97307.09;;;6.94;100.00
23616;BME280;11985;49.404;7.734;2023-12-28T22:40:01;97310.56;;;6.94;100.00
23616;BME280;11985;49.404;7.734;2023-12-28T22:45:03;97309.97;;;6.99;100.00
23616;BME280;11985;49.404;7.734;2023-12-28T22:50:07;97307.81;;;7.02;100.00
23616;BME280;11985;49.404;7.734;2023-12-28T22:55:09;97291.31;;;7.02;100.00
23616;BME280;11985;49.404;7.734;2023-12-28T23:00:11;97292.91;;;7.03;100.00
23616;BME280;11985;49.404;7.734;2023-12-28T23:05:22;97280.03;;;7.01;100.00
23616;BME280;11985;49.404;7.734;2023-12-28T23:10:24;97272.97;;;7.02;100.00
23616;BME280;11985;49.404;7.734;2023-12-28T23:15:27;97284.06;;;7.04;100.00
23616;BME280;11985;49.404;7.734;2023-12-28T23:20:31;97277.47;;;7.08;100.00
23616;BME280;11985;49.404;7.734;2023-12-28T23:25:32;97281.72;;;7.09;100.00
23616;BME280;11985;49.404;7.734;2023-12-28T23:30:35;97283.31;;;7.10;100.00
23616;BME280;11985;49.404;7.734;2023-12-28T23:35:39;97271.88;;;7.11;100.00
23616;BME280;11985;49.404;7.734;2023-12-28T23:40:41;97274.50;;;7.11;100.00
23616;BME280;11985;49.404;7.734;2023-12-28T23:45:43;97281.34;;;7.12;100.00
23616;BME280;11985;49.404;7.734;2023-12-28T23:50:46;97270.22;;;7.10;100.00
23616;BME280;11985;49.404;7.734;2023-12-28T23:55:47;97263.63;;;7.14;100.00
